Praga, Češka

08:22 AM CEST on avgust 27, 2016 (GMT +0200)
Čistovická | | Change Station

Viš 1243 ft 50.07 °N, 14.31 °E | Updated 52 seconds ago

Clear
Jasno
61.9 °F
Feels Like 61.9 °F
N
0.6
Veter Spremenljivo Veter od SV
Gusts 1.9 mph

Danes
High -- | Low -- °F
--% Chance of Precip.
Yesterday
High -- | Low -- °F
Precip. -- v
Zračni tlak 30.15 v
Vidljivost -9999.0 milje
Oblaki
Rosišče 54 °F
Vlažnost 75%
Padavine 0.00 v
Snow Depth Not available.
6:10 AM 7:56 PM
Pojemajoči krajec, 27% visible
METAR LKPR 270600Z VRB01KT CAVOK 18/13 Q1021 NOSIG
Zračni tlak 30.15 v
Vidljivost -9999.0 milje
Oblaki
Rosišče 54 °F
Vlažnost 75%
Padavine 0.00 v
Snow Depth Not available.
6:10 AM 7:56 PM
Pojemajoči krajec, 27% visible
METAR LKPR 270600Z VRB01KT CAVOK 18/13 Q1021 NOSIG

10-Day Weather Forecast

×

Almanac

Astronomija

Aug. 27, 2016 Rise Set
Actual Time
Civil Twilight
Nautical Twilight
Astronomical Twilight
Moon
Length Of Visible Light
Dolžina dneva
Tomorrow will be .
, % of the Moon is Illuminated

Današnji ekstremi

Country Highs Country Lows

Community

WunderPhotos

Upload Photos

1,935,303 photos uploaded!

WunderBlog® & News

Nearby

Air Quality

  Air Quality AQ Index Pollutant
Not available.

Snow Depth

Station Depth Višina

Earthquake Activity

City Distance Mag. Time & Date
Minimum magnitude displayed is 2.5.

Coastal Water Temperatures

Mesto Temperatura

Stations

Nearby Weather Stations

Station Location Temp Občutek zaradi vetra Rosišče Vlažnost Veter Precip. Viš Obnovljeno Type